sensor_id;sensor_type;location;lat;lon;timestamp;P1;durP1;ratioP1;P2;durP2;ratioP2
38994;SDS011;24769;18.712;99.000;2024-02-26T00:01:47;58.40;;;47.60;;
38994;SDS011;24769;18.712;99.000;2024-02-26T00:04:14;57.00;;;47.20;;
38994;SDS011;24769;18.712;99.000;2024-02-26T00:06:41;60.00;;;49.40;;
38994;SDS011;24769;18.712;99.000;2024-02-26T00:09:08;57.20;;;47.60;;
38994;SDS011;24769;18.712;99.000;2024-02-26T00:11:35;58.20;;;48.80;;
38994;SDS011;24769;18.712;99.000;2024-02-26T00:14:02;59.60;;;49.20;;
38994;SDS011;24769;18.712;99.000;2024-02-26T00:16:30;58.00;;;48.20;;
38994;SDS011;24769;18.712;99.000;2024-02-26T00:18:56;52.40;;;44.80;;
38994;SDS011;24769;18.712;99.000;2024-02-26T00:21:23;52.80;;;44.60;;
38994;SDS011;24769;18.712;99.000;2024-02-26T00:23:50;59.20;;;49.20;;
38994;SDS011;24769;18.712;99.000;2024-02-26T00:26:18;58.40;;;48.40;;
38994;SDS011;24769;18.712;99.000;2024-02-26T00:28:45;53.40;;;45.20;;
38994;SDS011;24769;18.712;99.000;2024-02-26T00:31:12;55.20;;;46.00;;
38994;SDS011;24769;18.712;99.000;2024-02-26T00:33:38;54.00;;;46.00;;
38994;SDS011;24769;18.712;99.000;2024-02-26T00:36:05;57.60;;;48.20;;
38994;SDS011;24769;18.712;99.000;2024-02-26T00:38:32;52.00;;;43.60;;
38994;SDS011;24769;18.712;99.000;2024-02-26T00:40:59;58.20;;;48.40;;
38994;SDS011;24769;18.712;99.000;2024-02-26T00:43:25;53.60;;;46.00;;
38994;SDS011;24769;18.712;99.000;2024-02-26T00:45:52;57.00;;;48.00;;
38994;SDS011;24769;18.712;99.000;2024-02-26T00:48:19;56.60;;;47.60;;
38994;SDS011;24769;18.712;99.000;2024-02-26T00:50:46;53.60;;;46.00;;
38994;SDS011;24769;18.712;99.000;2024-02-26T00:53:13;53.40;;;45.40;;
38994;SDS011;24769;18.712;99.000;2024-02-26T00:55:39;59.40;;;49.40;;
38994;SDS011;24769;18.712;99.000;2024-02-26T00:58:06;56.60;;;47.60;;
38994;SDS011;24769;18.712;99.000;2024-02-26T01:00:33;55.50;;;47.25;;
38994;SDS011;24769;18.712;99.000;2024-02-26T01:03:00;58.80;;;48.80;;
38994;SDS011;24769;18.712;99.000;2024-02-26T01:05:26;57.50;;;47.50;;
38994;SDS011;24769;18.712;99.000;2024-02-26T01:07:53;54.25;;;45.25;;
38994;SDS011;24769;18.712;99.000;2024-02-26T01:10:20;55.50;;;46.50;;
38994;SDS011;24769;18.712;99.000;2024-02-26T01:12:46;60.00;;;48.75;;
38994;SDS011;24769;18.712;99.000;2024-02-26T01:15:13;61.50;;;51.25;;
38994;SDS011;24769;18.712;99.000;2024-02-26T01:17:40;55.00;;;46.75;;
38994;SDS011;24769;18.712;99.000;2024-02-26T01:20:07;55.00;;;46.50;;
38994;SDS011;24769;18.712;99.000;2024-02-26T01:22:36;56.00;;;47.50;;
38994;SDS011;24769;18.712;99.000;2024-02-26T01:25:04;58.00;;;48.25;;
38994;SDS011;24769;18.712;99.000;2024-02-26T01:27:31;58.00;;;48.50;;
38994;SDS011;24769;18.712;99.000;2024-02-26T01:29:57;58.00;;;47.75;;
38994;SDS011;24769;18.712;99.000;2024-02-26T01:32:24;57.00;;;48.50;;
38994;SDS011;24769;18.712;99.000;2024-02-26T01:34:51;63.50;;;52.25;;
38994;SDS011;24769;18.712;99.000;2024-02-26T01:37:17;55.75;;;47.50;;
38994;SDS011;24769;18.712;99.000;2024-02-26T01:39:44;58.75;;;49.50;;
38994;SDS011;24769;18.712;99.000;2024-02-26T01:42:11;59.25;;;49.00;;
38994;SDS011;24769;18.712;99.000;2024-02-26T01:44:37;58.50;;;49.50;;
38994;SDS011;24769;18.712;99.000;2024-02-26T01:47:05;58.75;;;49.00;;
38994;SDS011;24769;18.712;99.000;2024-02-26T01:49:36;62.50;;;52.25;;
38994;SDS011;24769;18.712;99.000;2024-02-26T01:52:03;58.50;;;47.75;;
38994;SDS011;24769;18.712;99.000;2024-02-26T01:54:31;55.50;;;46.75;;
38994;SDS011;24769;18.712;99.000;2024-02-26T01:57:02;60.25;;;50.00;;
38994;SDS011;24769;18.712;99.000;2024-02-26T01:59:32;60.50;;;49.75;;
38994;SDS011;24769;18.712;99.000;2024-02-26T02:02:00;53.25;;;45.25;;
38994;SDS011;24769;18.712;99.000;2024-02-26T02:04:29;55.25;;;46.50;;
38994;SDS011;24769;18.712;99.000;2024-02-26T02:06:56;61.50;;;50.75;;
38994;SDS011;24769;18.712;99.000;2024-02-26T02:09:26;60.25;;;49.50;;
38994;SDS011;24769;18.712;99.000;2024-02-26T02:11:54;60.25;;;50.25;;
38994;SDS011;24769;18.712;99.000;2024-02-26T02:14:21;64.50;;;52.50;;
38994;SDS011;24769;18.712;99.000;2024-02-26T02:16:48;65.00;;;53.50;;
38994;SDS011;24769;18.712;99.000;2024-02-26T02:19:15;59.75;;;49.75;;
38994;SDS011;24769;18.712;99.000;2024-02-26T02:21:41;65.50;;;53.50;;
38994;SDS011;24769;18.712;99.000;2024-02-26T02:24:08;59.25;;;49.50;;
38994;SDS011;24769;18.712;99.000;2024-02-26T02:26:35;64.00;;;52.75;;
38994;SDS011;24769;18.712;99.000;2024-02-26T02:29:02;64.00;;;53.25;;
38994;SDS011;24769;18.712;99.000;2024-02-26T02:31:29;67.00;;;56.00;;
38994;SDS011;24769;18.712;99.000;2024-02-26T02:33:56;62.00;;;51.50;;
38994;SDS011;24769;18.712;99.000;2024-02-26T02:36:23;63.75;;;53.00;;
38994;SDS011;24769;18.712;99.000;2024-02-26T02:38:50;66.50;;;54.75;;
38994;SDS011;24769;18.712;99.000;2024-02-26T02:41:17;66.75;;;55.25;;
38994;SDS011;24769;18.712;99.000;2024-02-26T02:43:44;67.00;;;56.00;;
38994;SDS011;24769;18.712;99.000;2024-02-26T02:46:11;68.50;;;57.25;;
38994;SDS011;24769;18.712;99.000;2024-02-26T02:48:38;67.75;;;56.75;;
38994;SDS011;24769;18.712;99.000;2024-02-26T02:51:05;73.00;;;63.00;;
38994;SDS011;24769;18.712;99.000;2024-02-26T02:53:31;67.00;;;55.00;;
38994;SDS011;24769;18.712;99.000;2024-02-26T02:55:58;72.75;;;65.00;;
38994;SDS011;24769;18.712;99.000;2024-02-26T02:58:25;73.25;;;65.00;;
38994;SDS011;24769;18.712;99.000;2024-02-26T03:00:51;70.25;;;61.25;;
38994;SDS011;24769;18.712;99.000;2024-02-26T03:03:20;73.25;;;66.25;;
38994;SDS011;24769;18.712;99.000;2024-02-26T03:05:49;74.50;;;65.75;;
38994;SDS011;24769;18.712;99.000;2024-02-26T03:08:16;75.50;;;68.50;;
38994;SDS011;24769;18.712;99.000;2024-02-26T03:10:44;74.50;;;68.00;;
38994;SDS011;24769;18.712;99.000;2024-02-26T03:13:11;76.75;;;72.75;;
38994;SDS011;24769;18.712;99.000;2024-02-26T03:15:38;75.00;;;70.00;;
38994;SDS011;24769;18.712;99.000;2024-02-26T03:18:04;72.25;;;64.75;;
38994;SDS011;24769;18.712;99.000;2024-02-26T03:20:31;73.50;;;67.25;;
38994;SDS011;24769;18.712;99.000;2024-02-26T03:22:58;70.75;;;62.25;;
38994;SDS011;24769;18.712;99.000;2024-02-26T03:25:25;72.75;;;65.75;;
38994;SDS011;24769;18.712;99.000;2024-02-26T03:27:51;71.50;;;62.50;;
38994;SDS011;24769;18.712;99.000;2024-02-26T03:30:18;75.50;;;69.75;;
38994;SDS011;24769;18.712;99.000;2024-02-26T03:32:45;76.50;;;72.00;;
38994;SDS011;24769;18.712;99.000;2024-02-26T03:35:13;73.00;;;65.50;;
38994;SDS011;24769;18.712;99.000;2024-02-26T03:37:40;74.25;;;69.25;;
38994;SDS011;24769;18.712;99.000;2024-02-26T03:40:06;72.75;;;66.00;;
38994;SDS011;24769;18.712;99.000;2024-02-26T03:42:34;72.25;;;64.50;;
38994;SDS011;24769;18.712;99.000;2024-02-26T03:45:01;77.00;;;74.00;;
38994;SDS011;24769;18.712;99.000;2024-02-26T03:47:28;75.75;;;71.25;;
38994;SDS011;24769;18.712;99.000;2024-02-26T03:49:54;76.25;;;71.75;;
38994;SDS011;24769;18.712;99.000;2024-02-26T03:52:21;70.25;;;61.50;;
38994;SDS011;24769;18.712;99.000;2024-02-26T03:54:48;74.75;;;69.00;;
38994;SDS011;24769;18.712;99.000;2024-02-26T03:57:15;75.75;;;72.25;;
38994;SDS011;24769;18.712;99.000;2024-02-26T03:59:42;76.75;;;73.50;;
38994;SDS011;24769;18.712;99.000;2024-02-26T04:02:08;75.75;;;71.00;;
38994;SDS011;24769;18.712;99.000;2024-02-26T04:04:35;74.00;;;68.50;;
38994;SDS011;24769;18.712;99.000;2024-02-26T04:07:02;76.75;;;72.00;;
38994;SDS011;24769;18.712;99.000;2024-02-26T04:09:30;76.50;;;72.75;;
38994;SDS011;24769;18.712;99.000;2024-02-26T04:11:57;76.50;;;73.50;;
38994;SDS011;24769;18.712;99.000;2024-02-26T04:14:24;77.00;;;74.00;;
38994;SDS011;24769;18.712;99.000;2024-02-26T04:16:51;75.75;;;71.50;;
38994;SDS011;24769;18.712;99.000;2024-02-26T04:19:19;76.25;;;72.75;;
38994;SDS011;24769;18.712;99.000;2024-02-26T04:21:46;76.75;;;73.50;;
38994;SDS011;24769;18.712;99.000;2024-02-26T04:24:13;74.75;;;70.25;;
38994;SDS011;24769;18.712;99.000;2024-02-26T04:26:40;78.00;;;77.25;;
38994;SDS011;24769;18.712;99.000;2024-02-26T04:29:06;76.00;;;72.25;;
38994;SDS011;24769;18.712;99.000;2024-02-26T04:31:33;82.50;;;80.75;;
38994;SDS011;24769;18.712;99.000;2024-02-26T04:34:00;84.50;;;84.50;;
38994;SDS011;24769;18.712;99.000;2024-02-26T04:36:27;84.25;;;82.75;;
38994;SDS011;24769;18.712;99.000;2024-02-26T04:38:53;78.75;;;78.00;;
38994;SDS011;24769;18.712;99.000;2024-02-26T04:41:21;81.25;;;81.25;;
38994;SDS011;24769;18.712;99.000;2024-02-26T04:43:49;76.25;;;73.25;;
38994;SDS011;24769;18.712;99.000;2024-02-26T04:46:15;74.75;;;70.25;;
38994;SDS011;24769;18.712;99.000;2024-02-26T04:48:42;81.25;;;80.75;;
38994;SDS011;24769;18.712;99.000;2024-02-26T04:51:11;79.25;;;79.00;;
38994;SDS011;24769;18.712;99.000;2024-02-26T04:53:37;77.00;;;75.50;;
38994;SDS011;24769;18.712;99.000;2024-02-26T04:56:04;76.75;;;74.50;;
38994;SDS011;24769;18.712;99.000;2024-02-26T04:58:31;78.00;;;77.00;;
38994;SDS011;24769;18.712;99.000;2024-02-26T05:00:58;76.50;;;73.75;;
38994;SDS011;24769;18.712;99.000;2024-02-26T05:03:25;77.50;;;75.50;;
38994;SDS011;24769;18.712;99.000;2024-02-26T05:05:51;75.50;;;71.75;;
38994;SDS011;24769;18.712;99.000;2024-02-26T05:08:18;74.25;;;69.75;;
38994;SDS011;24769;18.712;99.000;2024-02-26T05:10:45;72.50;;;66.25;;
38994;SDS011;24769;18.712;99.000;2024-02-26T05:13:12;69.75;;;61.75;;
38994;SDS011;24769;18.712;99.000;2024-02-26T05:15:40;71.25;;;64.50;;
38994;SDS011;24769;18.712;99.000;2024-02-26T05:18:07;69.25;;;61.25;;
38994;SDS011;24769;18.712;99.000;2024-02-26T05:20:34;72.25;;;65.50;;
38994;SDS011;24769;18.712;99.000;2024-02-26T05:23:01;71.25;;;64.00;;
38994;SDS011;24769;18.712;99.000;2024-02-26T05:25:29;68.25;;;59.25;;
38994;SDS011;24769;18.712;99.000;2024-02-26T05:27:56;72.20;;;65.00;;
38994;SDS011;24769;18.712;99.000;2024-02-26T05:30:23;69.75;;;61.75;;
38994;SDS011;24769;18.712;99.000;2024-02-26T05:32:52;70.75;;;63.25;;
38994;SDS011;24769;18.712;99.000;2024-02-26T05:35:19;67.40;;;57.40;;
38994;SDS011;24769;18.712;99.000;2024-02-26T05:37:45;67.00;;;57.40;;
38994;SDS011;24769;18.712;99.000;2024-02-26T05:40:12;69.80;;;62.40;;
38994;SDS011;24769;18.712;99.000;2024-02-26T05:42:39;68.40;;;59.60;;
38994;SDS011;24769;18.712;99.000;2024-02-26T05:45:06;71.20;;;62.80;;
38994;SDS011;24769;18.712;99.000;2024-02-26T05:47:33;65.80;;;55.60;;
38994;SDS011;24769;18.712;99.000;2024-02-26T05:50:01;72.00;;;65.80;;
38994;SDS011;24769;18.712;99.000;2024-02-26T05:52:28;68.80;;;60.00;;
38994;SDS011;24769;18.712;99.000;2024-02-26T05:54:58;69.40;;;62.00;;
38994;SDS011;24769;18.712;99.000;2024-02-26T05:57:24;69.60;;;61.00;;
38994;SDS011;24769;18.712;99.000;2024-02-26T05:59:51;68.20;;;59.00;;
38994;SDS011;24769;18.712;99.000;2024-02-26T06:02:18;68.40;;;58.40;;
38994;SDS011;24769;18.712;99.000;2024-02-26T06:04:44;65.80;;;55.60;;
38994;SDS011;24769;18.712;99.000;2024-02-26T06:07:12;66.80;;;57.40;;
38994;SDS011;24769;18.712;99.000;2024-02-26T06:09:39;68.40;;;59.80;;
38994;SDS011;24769;18.712;99.000;2024-02-26T06:12:06;64.80;;;54.00;;
38994;SDS011;24769;18.712;99.000;2024-02-26T06:14:32;65.40;;;54.60;;
38994;SDS011;24769;18.712;99.000;2024-02-26T06:16:59;68.20;;;60.40;;
38994;SDS011;24769;18.712;99.000;2024-02-26T06:19:26;66.00;;;55.60;;
38994;SDS011;24769;18.712;99.000;2024-02-26T06:21:53;61.00;;;50.80;;
38994;SDS011;24769;18.712;99.000;2024-02-26T06:24:19;67.00;;;57.80;;
38994;SDS011;24769;18.712;99.000;2024-02-26T06:26:47;68.00;;;60.20;;
38994;SDS011;24769;18.712;99.000;2024-02-26T06:29:14;66.40;;;56.60;;
38994;SDS011;24769;18.712;99.000;2024-02-26T06:31:41;66.40;;;56.00;;
38994;SDS011;24769;18.712;99.000;2024-02-26T06:34:08;67.20;;;56.60;;
38994;SDS011;24769;18.712;99.000;2024-02-26T06:36:35;66.80;;;56.00;;
38994;SDS011;24769;18.712;99.000;2024-02-26T06:39:01;62.80;;;52.40;;
38994;SDS011;24769;18.712;99.000;2024-02-26T06:41:30;65.00;;;54.80;;
38994;SDS011;24769;18.712;99.000;2024-02-26T06:43:57;63.60;;;52.40;;
38994;SDS011;24769;18.712;99.000;2024-02-26T06:46:24;67.60;;;59.40;;
38994;SDS011;24769;18.712;99.000;2024-02-26T06:48:51;65.00;;;55.00;;
38994;SDS011;24769;18.712;99.000;2024-02-26T06:51:18;62.40;;;51.60;;
38994;SDS011;24769;18.712;99.000;2024-02-26T06:53:45;67.60;;;58.40;;
38994;SDS011;24769;18.712;99.000;2024-02-26T06:56:12;68.00;;;59.20;;
38994;SDS011;24769;18.712;99.000;2024-02-26T06:58:38;66.00;;;55.80;;
38994;SDS011;24769;18.712;99.000;2024-02-26T07:01:05;67.20;;;58.80;;
38994;SDS011;24769;18.712;99.000;2024-02-26T07:03:33;64.80;;;53.40;;
38994;SDS011;24769;18.712;99.000;2024-02-26T07:06:00;64.00;;;53.60;;
38994;SDS011;24769;18.712;99.000;2024-02-26T07:08:27;66.00;;;57.00;;
38994;SDS011;24769;18.712;99.000;2024-02-26T07:10:54;65.20;;;55.60;;
38994;SDS011;24769;18.712;99.000;2024-02-26T07:13:21;67.20;;;58.80;;
38994;SDS011;24769;18.712;99.000;2024-02-26T07:15:48;64.60;;;54.80;;
38994;SDS011;24769;18.712;99.000;2024-02-26T07:18:15;65.00;;;55.00;;
38994;SDS011;24769;18.712;99.000;2024-02-26T07:20:42;65.00;;;55.80;;
38994;SDS011;24769;18.712;99.000;2024-02-26T07:23:09;65.00;;;54.20;;
38994;SDS011;24769;18.712;99.000;2024-02-26T07:25:36;65.60;;;56.20;;
38994;SDS011;24769;18.712;99.000;2024-02-26T07:28:03;67.00;;;57.40;;
38994;SDS011;24769;18.712;99.000;2024-02-26T07:30:30;63.80;;;52.20;;
38994;SDS011;24769;18.712;99.000;2024-02-26T07:32:57;64.20;;;53.60;;
38994;SDS011;24769;18.712;99.000;2024-02-26T07:35:23;64.20;;;54.00;;
38994;SDS011;24769;18.712;99.000;2024-02-26T07:37:50;62.00;;;51.20;;
38994;SDS011;24769;18.712;99.000;2024-02-26T07:40:17;66.80;;;56.60;;
38994;SDS011;24769;18.712;99.000;2024-02-26T07:42:44;59.00;;;49.00;;
38994;SDS011;24769;18.712;99.000;2024-02-26T07:45:11;67.00;;;58.40;;
38994;SDS011;24769;18.712;99.000;2024-02-26T07:47:38;66.20;;;56.00;;
38994;SDS011;24769;18.712;99.000;2024-02-26T07:50:07;65.80;;;54.80;;
38994;SDS011;24769;18.712;99.000;2024-02-26T07:52:34;70.60;;;63.20;;
38994;SDS011;24769;18.712;99.000;2024-02-26T07:55:01;72.40;;;68.00;;
38994;SDS011;24769;18.712;99.000;2024-02-26T07:57:28;68.40;;;60.60;;
38994;SDS011;24769;18.712;99.000;2024-02-26T08:00:02;70.60;;;63.20;;
38994;SDS011;24769;18.712;99.000;2024-02-26T08:02:29;65.60;;;55.60;;
38994;SDS011;24769;18.712;99.000;2024-02-26T08:04:55;69.60;;;62.00;;
38994;SDS011;24769;18.712;99.000;2024-02-26T08:07:22;67.80;;;58.60;;
38994;SDS011;24769;18.712;99.000;2024-02-26T08:09:49;65.20;;;54.80;;
38994;SDS011;24769;18.712;99.000;2024-02-26T08:12:15;66.20;;;57.00;;
38994;SDS011;24769;18.712;99.000;2024-02-26T08:14:42;67.00;;;57.60;;
38994;SDS011;24769;18.712;99.000;2024-02-26T08:17:09;69.00;;;61.20;;
38994;SDS011;24769;18.712;99.000;2024-02-26T08:19:36;67.20;;;58.20;;
38994;SDS011;24769;18.712;99.000;2024-02-26T08:22:03;68.00;;;60.00;;
38994;SDS011;24769;18.712;99.000;2024-02-26T08:24:30;67.80;;;59.60;;
38994;SDS011;24769;18.712;99.000;2024-02-26T08:26:56;65.80;;;56.60;;
38994;SDS011;24769;18.712;99.000;2024-02-26T08:29:23;66.40;;;56.40;;
38994;SDS011;24769;18.712;99.000;2024-02-26T08:31:53;65.20;;;55.00;;
38994;SDS011;24769;18.712;99.000;2024-02-26T08:34:19;64.60;;;54.60;;
38994;SDS011;24769;18.712;99.000;2024-02-26T08:36:46;65.80;;;56.00;;
38994;SDS011;24769;18.712;99.000;2024-02-26T08:39:14;66.80;;;57.40;;
38994;SDS011;24769;18.712;99.000;2024-02-26T08:41:43;65.80;;;55.20;;
38994;SDS011;24769;18.712;99.000;2024-02-26T08:44:10;63.20;;;51.80;;
38994;SDS011;24769;18.712;99.000;2024-02-26T08:46:37;66.40;;;56.80;;
38994;SDS011;24769;18.712;99.000;2024-02-26T08:49:04;62.40;;;52.00;;
38994;SDS011;24769;18.712;99.000;2024-02-26T08:51:31;61.40;;;51.00;;
38994;SDS011;24769;18.712;99.000;2024-02-26T08:53:58;64.40;;;53.60;;
38994;SDS011;24769;18.712;99.000;2024-02-26T08:56:24;62.80;;;52.20;;
38994;SDS011;24769;18.712;99.000;2024-02-26T08:58:51;65.40;;;54.60;;
38994;SDS011;24769;18.712;99.000;2024-02-26T09:01:19;64.20;;;53.40;;
38994;SDS011;24769;18.712;99.000;2024-02-26T09:03:46;62.00;;;51.60;;
38994;SDS011;24769;18.712;99.000;2024-02-26T09:06:14;62.00;;;52.00;;
38994;SDS011;24769;18.712;99.000;2024-02-26T09:08:41;66.20;;;56.20;;
38994;SDS011;24769;18.712;99.000;2024-02-26T09:11:08;64.80;;;54.20;;
38994;SDS011;24769;18.712;99.000;2024-02-26T09:13:35;64.20;;;53.40;;
38994;SDS011;24769;18.712;99.000;2024-02-26T09:16:02;66.80;;;57.20;;
38994;SDS011;24769;18.712;99.000;2024-02-26T09:18:29;65.20;;;54.20;;
38994;SDS011;24769;18.712;99.000;2024-02-26T09:20:56;66.20;;;56.00;;
38994;SDS011;24769;18.712;99.000;2024-02-26T09:23:22;62.80;;;51.20;;
38994;SDS011;24769;18.712;99.000;2024-02-26T09:25:49;67.80;;;58.40;;
38994;SDS011;24769;18.712;99.000;2024-02-26T09:28:16;61.20;;;51.00;;
38994;SDS011;24769;18.712;99.000;2024-02-26T09:30:43;62.80;;;52.00;;
38994;SDS011;24769;18.712;99.000;2024-02-26T09:33:10;63.80;;;53.00;;
38994;SDS011;24769;18.712;99.000;2024-02-26T09:35:37;61.20;;;50.60;;
38994;SDS011;24769;18.712;99.000;2024-02-26T09:38:03;64.20;;;53.20;;
38994;SDS011;24769;18.712;99.000;2024-02-26T09:40:30;58.60;;;48.40;;
38994;SDS011;24769;18.712;99.000;2024-02-26T09:42:59;62.60;;;51.60;;
38994;SDS011;24769;18.712;99.000;2024-02-26T09:45:29;62.60;;;51.80;;
38994;SDS011;24769;18.712;99.000;2024-02-26T09:48:00;61.40;;;50.80;;
38994;SDS011;24769;18.712;99.000;2024-02-26T09:50:30;61.60;;;50.60;;
38994;SDS011;24769;18.712;99.000;2024-02-26T09:52:56;64.20;;;53.20;;
38994;SDS011;24769;18.712;99.000;2024-02-26T09:55:28;63.60;;;52.20;;
38994;SDS011;24769;18.712;99.000;2024-02-26T09:57:54;62.00;;;51.00;;
38994;SDS011;24769;18.712;99.000;2024-02-26T10:00:23;62.40;;;51.20;;
38994;SDS011;24769;18.712;99.000;2024-02-26T10:02:55;62.60;;;51.60;;
38994;SDS011;24769;18.712;99.000;2024-02-26T10:05:24;62.60;;;51.40;;
38994;SDS011;24769;18.712;99.000;2024-02-26T10:07:51;60.40;;;49.80;;
38994;SDS011;24769;18.712;99.000;2024-02-26T10:10:20;60.80;;;50.00;;
38994;SDS011;24769;18.712;99.000;2024-02-26T10:12:48;61.60;;;50.40;;
38994;SDS011;24769;18.712;99.000;2024-02-26T10:15:15;64.60;;;53.40;;
38994;SDS011;24769;18.712;99.000;2024-02-26T10:17:42;60.80;;;50.00;;
38994;SDS011;24769;18.712;99.000;2024-02-26T10:20:13;58.60;;;48.20;;
38994;SDS011;24769;18.712;99.000;2024-02-26T10:22:44;62.00;;;51.00;;
38994;SDS011;24769;18.712;99.000;2024-02-26T10:25:11;62.20;;;51.20;;
38994;SDS011;24769;18.712;99.000;2024-02-26T10:27:37;58.20;;;48.40;;
38994;SDS011;24769;18.712;99.000;2024-02-26T10:30:16;57.00;;;47.60;;
38994;SDS011;24769;18.712;99.000;2024-02-26T10:32:45;62.40;;;51.80;;
38994;SDS011;24769;18.712;99.000;2024-02-26T10:35:19;56.20;;;47.20;;
38994;SDS011;24769;18.712;99.000;2024-02-26T10:37:46;58.40;;;48.40;;
38994;SDS011;24769;18.712;99.000;2024-02-26T10:40:14;60.80;;;50.20;;
38994;SDS011;24769;18.712;99.000;2024-02-26T10:42:41;57.20;;;47.20;;
38994;SDS011;24769;18.712;99.000;2024-02-26T10:45:10;54.80;;;45.80;;
38994;SDS011;24769;18.712;99.000;2024-02-26T10:47:37;62.20;;;51.00;;
38994;SDS011;24769;18.712;99.000;2024-02-26T10:50:05;53.60;;;44.60;;
38994;SDS011;24769;18.712;99.000;2024-02-26T10:52:33;60.80;;;50.00;;
38994;SDS011;24769;18.712;99.000;2024-02-26T10:55:02;58.40;;;48.60;;
38994;SDS011;24769;18.712;99.000;2024-02-26T10:57:35;59.60;;;49.40;;
38994;SDS011;24769;18.712;99.000;2024-02-26T11:00:05;59.20;;;49.00;;
38994;SDS011;24769;18.712;99.000;2024-02-26T11:02:36;60.60;;;50.20;;
38994;SDS011;24769;18.712;99.000;2024-02-26T11:05:03;60.60;;;50.00;;
38994;SDS011;24769;18.712;99.000;2024-02-26T11:07:31;60.00;;;49.60;;
38994;SDS011;24769;18.712;99.000;2024-02-26T11:10:04;64.40;;;52.80;;
38994;SDS011;24769;18.712;99.000;2024-02-26T11:12:32;63.20;;;52.20;;
38994;SDS011;24769;18.712;99.000;2024-02-26T11:15:03;60.00;;;50.00;;
38994;SDS011;24769;18.712;99.000;2024-02-26T11:17:30;53.00;;;43.40;;
38994;SDS011;24769;18.712;99.000;2024-02-26T11:19:59;59.00;;;49.00;;
38994;SDS011;24769;18.712;99.000;2024-02-26T11:22:29;63.50;;;52.75;;
38994;SDS011;24769;18.712;99.000;2024-02-26T11:24:56;61.75;;;51.00;;
38994;SDS011;24769;18.712;99.000;2024-02-26T11:27:24;63.50;;;52.25;;
38994;SDS011;24769;18.712;99.000;2024-02-26T11:29:55;64.50;;;53.00;;
38994;SDS011;24769;18.712;99.000;2024-02-26T11:32:26;72.00;;;64.50;;
38994;SDS011;24769;18.712;99.000;2024-02-26T11:34:55;72.00;;;64.25;;
38994;SDS011;24769;18.712;99.000;2024-02-26T11:37:25;74.75;;;69.00;;
38994;SDS011;24769;18.712;99.000;2024-02-26T11:39:52;74.75;;;70.00;;
38994;SDS011;24769;18.712;99.000;2024-02-26T11:42:22;77.25;;;71.50;;
38994;SDS011;24769;18.712;99.000;2024-02-26T11:44:54;78.75;;;76.50;;
38994;SDS011;24769;18.712;99.000;2024-02-26T11:49:33;74.25;;;68.50;;
38994;SDS011;24769;18.712;99.000;2024-02-26T11:52:00;69.00;;;59.25;;
38994;SDS011;24769;18.712;99.000;2024-02-26T11:55:15;69.75;;;60.00;;
38994;SDS011;24769;18.712;99.000;2024-02-26T12:05:14;78.25;;;75.50;;
38994;SDS011;24769;18.712;99.000;2024-02-26T12:07:49;87.40;;;82.60;;
38994;SDS011;24769;18.712;99.000;2024-02-26T12:10:26;103.40;;;96.20;;
38994;SDS011;24769;18.712;99.000;2024-02-26T12:15:31;105.60;;;101.80;;
38994;SDS011;24769;18.712;99.000;2024-02-26T12:18:03;112.20;;;110.00;;
38994;SDS011;24769;18.712;99.000;2024-02-26T12:20:31;107.20;;;103.20;;
38994;SDS011;24769;18.712;99.000;2024-02-26T12:22:58;98.40;;;97.00;;
38994;SDS011;24769;18.712;99.000;2024-02-26T12:25:26;93.80;;;92.80;;
38994;SDS011;24769;18.712;99.000;2024-02-26T12:27:54;93.60;;;91.80;;
38994;SDS011;24769;18.712;99.000;2024-02-26T12:30:22;96.60;;;96.60;;
38994;SDS011;24769;18.712;99.000;2024-02-26T12:32:50;95.00;;;94.00;;
38994;SDS011;24769;18.712;99.000;2024-02-26T12:35:18;87.60;;;86.00;;
38994;SDS011;24769;18.712;99.000;2024-02-26T12:37:45;80.75;;;79.50;;
38994;SDS011;24769;18.712;99.000;2024-02-26T12:40:12;88.60;;;86.20;;
38994;SDS011;24769;18.712;99.000;2024-02-26T12:42:39;84.50;;;82.00;;
38994;SDS011;24769;18.712;99.000;2024-02-26T12:45:07;80.00;;;78.20;;
38994;SDS011;24769;18.712;99.000;2024-02-26T12:47:40;76.75;;;71.25;;
38994;SDS011;24769;18.712;99.000;2024-02-26T12:50:09;78.50;;;75.50;;
38994;SDS011;24769;18.712;99.000;2024-02-26T12:52:38;80.20;;;78.20;;
38994;SDS011;24769;18.712;99.000;2024-02-26T12:55:06;76.75;;;71.50;;
38994;SDS011;24769;18.712;99.000;2024-02-26T12:57:35;80.25;;;78.25;;
38994;SDS011;24769;18.712;99.000;2024-02-26T13:00:07;80.25;;;76.25;;
38994;SDS011;24769;18.712;99.000;2024-02-26T13:02:37;79.60;;;78.00;;
38994;SDS011;24769;18.712;99.000;2024-02-26T13:05:05;77.75;;;73.75;;
38994;SDS011;24769;18.712;99.000;2024-02-26T13:07:33;75.00;;;69.75;;
38994;SDS011;24769;18.712;99.000;2024-02-26T13:10:06;71.75;;;62.75;;
38994;SDS011;24769;18.712;99.000;2024-02-26T13:12:34;74.50;;;68.00;;
38994;SDS011;24769;18.712;99.000;2024-02-26T13:15:02;75.50;;;70.00;;
38994;SDS011;24769;18.712;99.000;2024-02-26T13:17:32;74.25;;;67.75;;
38994;SDS011;24769;18.712;99.000;2024-02-26T13:19:59;70.50;;;61.75;;
38994;SDS011;24769;18.712;99.000;2024-02-26T13:22:26;76.75;;;71.50;;
38994;SDS011;24769;18.712;99.000;2024-02-26T13:24:56;71.00;;;62.50;;
38994;SDS011;24769;18.712;99.000;2024-02-26T13:27:23;69.00;;;59.50;;
38994;SDS011;24769;18.712;99.000;2024-02-26T13:32:37;67.75;;;57.50;;
38994;SDS011;24769;18.712;99.000;2024-02-26T13:35:11;70.50;;;60.75;;
38994;SDS011;24769;18.712;99.000;2024-02-26T13:37:39;70.00;;;60.50;;
38994;SDS011;24769;18.712;99.000;2024-02-26T13:40:07;70.75;;;62.00;;
38994;SDS011;24769;18.712;99.000;2024-02-26T13:42:37;70.75;;;60.75;;
38994;SDS011;24769;18.712;99.000;2024-02-26T13:45:04;68.00;;;58.00;;
38994;SDS011;24769;18.712;99.000;2024-02-26T13:47:32;69.50;;;58.75;;
38994;SDS011;24769;18.712;99.000;2024-02-26T13:50:00;71.50;;;61.50;;
38994;SDS011;24769;18.712;99.000;2024-02-26T13:52:27;70.25;;;60.25;;
38994;SDS011;24769;18.712;99.000;2024-02-26T13:54:53;64.50;;;52.75;;
38994;SDS011;24769;18.712;99.000;2024-02-26T13:57:20;70.00;;;59.50;;
38994;SDS011;24769;18.712;99.000;2024-02-26T13:59:47;71.25;;;59.50;;
38994;SDS011;24769;18.712;99.000;2024-02-26T14:02:15;69.50;;;58.75;;
38994;SDS011;24769;18.712;99.000;2024-02-26T14:04:42;70.25;;;61.00;;
38994;SDS011;24769;18.712;99.000;2024-02-26T14:07:09;67.50;;;55.50;;
38994;SDS011;24769;18.712;99.000;2024-02-26T14:09:37;71.00;;;61.50;;
38994;SDS011;24769;18.712;99.000;2024-02-26T14:12:04;68.75;;;58.50;;
38994;SDS011;24769;18.712;99.000;2024-02-26T14:14:31;65.75;;;53.75;;
38994;SDS011;24769;18.712;99.000;2024-02-26T14:17:01;71.00;;;61.75;;
38994;SDS011;24769;18.712;99.000;2024-02-26T14:19:29;71.00;;;61.75;;
38994;SDS011;24769;18.712;99.000;2024-02-26T14:21:55;71.25;;;61.50;;
38994;SDS011;24769;18.712;99.000;2024-02-26T14:24:22;72.25;;;64.25;;
38994;SDS011;24769;18.712;99.000;2024-02-26T14:26:49;69.25;;;58.50;;